Main page
METAR-TAF:

METAR-TAF

Airports :

Inuvik (Mike Zubko) Airport

Inuvik, Northwest Territories, Canada

latitude: 68-18N, longitude: 133-29W, elevation: 59 m

Current weather observation

The report was made 39 minutes ago, at 11:00 UTC
Wind 5 kt from the Southeast, varying between East and South/Southeast
Temperature -5°C
Humidity 58%
Pressure 1022 hPa
Visibility: 24.1 km
Few clouds at a height of 22000 ft

METAR: CYEV 161100Z 13005KT 090V150 15SM FEW220 M05/M12 A3019 RMK CI1 SLP233

Time: 05:39 (11:39 UTC)

Forecast

The report was made 4 hours and 59 minutes ago, at 06:40 UTC
Forecast valid from 16 at 07 UTC to 16 at 19 UTC
Wind 3 kt from variable directions
Visibility: 10 km
Few clouds at a height of 2000 ft
Scattered clouds at a height of 24000 ft
Becoming
from 16 at 08 UTC to 16 at 10 UTC
Wind 8 kt from the Southeast
Few clouds at a height of 24000 ft

TAF: CYEV 160640Z 1607/1619 VRB03KT P6SM FEW020 SCT240 BECMG 1608/1610 14008KT FEW240 RMK NXT FCST BY 161300Z

Weather observations and forecasts of more than 4000 airports (METAR and TAF reports).

The available stations are represented by yellow and red dots on the map.

Hover mouse over dot to see the name of the station.

Then click to see weather observations and forecasts.

To change the map : click on the green buttons with a black cross to zoom in, on the green button with a dash to zoom out, or on the green arrows for adjacent maps.


METAR-TAF: